PWSweather.com
Personal Weather Stations
Station Observations

ChardChardGB

Lat: 50.877408, Lon: -2.94964741

Elevation: 341

Station Type: WS3083

http://www.merriott-astro.co.uk/weather/index.htm

High Low Average
Temperature 57.9°F14.4°C 32.0°F0.0°C 49.0°F9.4°C
Dew Point 45.3°F7.4°C 27.6°F-2.4°C 37.8°F3.2°C
Winds 22.1 mph 35.6 kmh Calm Calm 5.0 mph SE8.0 kmh SE
Wind Gusts 22.1 mph35.6 kmh -- 6.0 mph9.7 kmh
Humidity 80% 0% 64%
Pressure 30.06 in1017.9 mb 29.33 in993.2 mb -
Precipitation 0.06 in1.5 mm - -
Hour Temp Dew Point Humidity Winds Wind Gusts Pressure Precip Precip Rate Daily Precip Total
11:19 AM 32.0°F0.0°C 38.7°F3.7°C 0% Calm Calm -- 29.36 in994.2 mb 0.00 in0.0 mm 0.00 in0.0 mm 0.00 in0.0 mm
11:20 AM 44.2°F6.8°C 36.1°F2.3°C 73% 7.6 mph S12.2 kmh S 7.6 mph12.2 kmh 29.59 in1002.0 mb 0.00 in0.0 mm 0.00 in0.0 mm 0.06 in1.5 mm
11:21 AM 48.7°F9.3°C 30.9°F-0.6°C 50% 6.9 mph E11.1 kmh E 6.9 mph11.1 kmh 30.04 in1017.3 mb 0.00 in0.0 mm 0.00 in0.0 mm 0.00 in0.0 mm
11:30 AM 47.8°F8.8°C 41.3°F5.2°C 78% 4.7 mph NE7.6 kmh NE 9.2 mph14.8 kmh 29.76 in1007.8 mb 0.00 in0.0 mm 0.00 in0.0 mm 0.00 in0.0 mm
11:40 AM 47.8°F8.8°C 41.3°F5.2°C 78% 3.6 mph NE5.8 kmh NE 5.4 mph8.7 kmh 29.77 in1008.1 mb 0.00 in0.0 mm 0.00 in0.0 mm 0.00 in0.0 mm
11:50 AM 48.2°F9.0°C 42.0°F5.6°C 79% 3.2 mph NE5.1 kmh NE 5.4 mph8.7 kmh 29.77 in1008.1 mb 0.00 in0.0 mm 0.00 in0.0 mm 0.00 in0.0 mm
12:00 PM 48.6°F9.2°C 42.4°F5.8°C 79% 3.3 mph NNE5.3 kmh NNE 5.4 mph8.7 kmh 29.77 in1008.1 mb 0.00 in0.0 mm 0.00 in0.0 mm 0.00 in0.0 mm
12:10 PM 48.7°F9.3°C 42.5°F5.8°C 79% 3.6 mph NW5.8 kmh NW 5.4 mph8.7 kmh 29.77 in1008.1 mb 0.00 in0.0 mm 0.00 in0.0 mm 0.00 in0.0 mm
12:20 PM 49.6°F9.8°C 43.4°F6.3°C 79% 3.0 mph NE4.8 kmh NE 5.4 mph8.7 kmh 29.78 in1008.5 mb 0.00 in0.0 mm 0.00 in0.0 mm 0.00 in0.0 mm
12:30 PM 50.5°F10.3°C 43.9°F6.6°C 78% 3.9 mph NE6.3 kmh NE 6.0 mph9.7 kmh 29.77 in1008.1 mb 0.00 in0.0 mm 0.00 in0.0 mm 0.00 in0.0 mm
12:40 PM 51.8°F11.0°C 44.1°F6.7°C 75% 4.6 mph NNE7.4 kmh NNE 6.0 mph9.7 kmh 29.77 in1008.1 mb 0.00 in0.0 mm 0.00 in0.0 mm 0.00 in0.0 mm
12:50 PM 53.6°F12.0°C 44.8°F7.1°C 72% 5.1 mph ENE8.2 kmh ENE 6.9 mph11.1 kmh 29.77 in1008.1 mb 0.00 in0.0 mm 0.00 in0.0 mm 0.00 in0.0 mm
01:00 PM 54.0°F12.2°C 44.8°F7.1°C 71% 5.8 mph NE9.3 kmh NE 8.3 mph13.4 kmh 29.77 in1008.1 mb 0.00 in0.0 mm 0.00 in0.0 mm 0.00 in0.0 mm
01:10 PM 54.3°F12.4°C 44.8°F7.1°C 70% 5.6 mph ENE9.0 kmh ENE 7.6 mph12.2 kmh 29.77 in1008.1 mb 0.00 in0.0 mm 0.00 in0.0 mm 0.00 in0.0 mm
01:20 PM 55.0°F12.8°C 43.1°F6.2°C 64% 4.5 mph ENE7.2 kmh ENE 6.9 mph11.1 kmh 29.76 in1007.8 mb 0.00 in0.0 mm 0.00 in0.0 mm 0.00 in0.0 mm
01:30 PM 53.8°F12.1°C 43.1°F6.2°C 67% 5.1 mph NE8.2 kmh NE 6.9 mph11.1 kmh 29.76 in1007.8 mb 0.00 in0.0 mm 0.00 in0.0 mm 0.00 in0.0 mm
01:40 PM 53.8°F12.1°C 43.9°F6.6°C 69% 4.8 mph NE7.7 kmh NE 6.9 mph11.1 kmh 29.77 in1008.1 mb 0.00 in0.0 mm 0.00 in0.0 mm 0.00 in0.0 mm
01:50 PM 54.1°F12.3°C 43.8°F6.6°C 68% 5.8 mph NE9.3 kmh NE 6.9 mph11.1 kmh 29.77 in1008.1 mb 0.00 in0.0 mm 0.00 in0.0 mm 0.00 in0.0 mm
02:00 PM 54.0°F12.2°C 43.6°F6.4°C 68% 5.6 mph NNE9.0 kmh NNE 8.3 mph13.4 kmh 29.76 in1007.8 mb 0.00 in0.0 mm 0.00 in0.0 mm 0.00 in0.0 mm
02:10 PM 54.1°F12.3°C 43.4°F6.3°C 67% 6.0 mph NE9.7 kmh NE 7.6 mph12.2 kmh 29.76 in1007.8 mb 0.00 in0.0 mm 0.00 in0.0 mm 0.00 in0.0 mm
02:20 PM 54.7°F12.6°C 42.3°F5.7°C 63% 4.6 mph NNE7.4 kmh NNE 7.6 mph12.2 kmh 29.77 in1008.1 mb 0.00 in0.0 mm 0.00 in0.0 mm 0.00 in0.0 mm
02:30 PM 55.4°F13.0°C 43.0°F6.1°C 63% 4.9 mph N7.9 kmh N 7.6 mph12.2 kmh 29.77 in1008.1 mb 0.00 in0.0 mm 0.00 in0.0 mm 0.00 in0.0 mm
02:40 PM 55.4°F13.0°C 42.2°F5.7°C 61% 5.4 mph N8.7 kmh N 9.2 mph14.8 kmh 29.77 in1008.1 mb 0.00 in0.0 mm 0.00 in0.0 mm 0.00 in0.0 mm
02:50 PM 54.3°F12.4°C 43.2°F6.2°C 66% 6.2 mph N10.0 kmh N 8.3 mph13.4 kmh 29.77 in1008.1 mb 0.00 in0.0 mm 0.00 in0.0 mm 0.00 in0.0 mm
03:00 PM 54.3°F12.4°C 43.2°F6.2°C 66% 5.0 mph NW8.0 kmh NW 6.9 mph11.1 kmh 29.77 in1008.1 mb 0.00 in0.0 mm 0.00 in0.0 mm 0.00 in0.0 mm
03:10 PM 54.3°F12.4°C 44.0°F6.7°C 68% 4.3 mph NNE6.9 kmh NNE 6.0 mph9.7 kmh 29.77 in1008.1 mb 0.00 in0.0 mm 0.00 in0.0 mm 0.00 in0.0 mm
03:20 PM 54.5°F12.5°C 42.6°F5.9°C 64% 5.0 mph NNE8.0 kmh NNE 6.9 mph11.1 kmh 29.77 in1008.1 mb 0.00 in0.0 mm 0.00 in0.0 mm 0.00 in0.0 mm
03:30 PM 54.7°F12.6°C 42.3°F5.7°C 63% 4.1 mph NNE6.6 kmh NNE 6.0 mph9.7 kmh 29.77 in1008.1 mb 0.00 in0.0 mm 0.00 in0.0 mm 0.00 in0.0 mm
03:40 PM 54.9°F12.7°C 42.5°F5.8°C 63% 4.6 mph NE7.4 kmh NE 6.0 mph9.7 kmh 29.78 in1008.5 mb 0.00 in0.0 mm 0.00 in0.0 mm 0.00 in0.0 mm
03:50 PM 55.0°F12.8°C 42.7°F5.9°C 63% 3.7 mph NNW6.0 kmh NNW 6.0 mph9.7 kmh 29.78 in1008.5 mb 0.00 in0.0 mm 0.00 in0.0 mm 0.00 in0.0 mm
04:00 PM 55.0°F12.8°C 42.3°F5.7°C 62% 4.2 mph NE6.8 kmh NE 6.0 mph9.7 kmh 29.78 in1008.5 mb 0.00 in0.0 mm 0.00 in0.0 mm 0.00 in0.0 mm
04:10 PM 54.9°F12.7°C 42.5°F5.8°C 63% 3.7 mph N6.0 kmh N 4.5 mph7.2 kmh 29.78 in1008.5 mb 0.00 in0.0 mm 0.00 in0.0 mm 0.00 in0.0 mm
04:20 PM 54.5°F12.5°C 42.2°F5.7°C 63% 3.8 mph NE6.1 kmh NE 8.3 mph13.4 kmh 29.78 in1008.5 mb 0.00 in0.0 mm 0.00 in0.0 mm 0.00 in0.0 mm
04:30 PM 54.5°F12.5°C 42.6°F5.9°C 64% 4.1 mph NNE6.6 kmh NNE 5.4 mph8.7 kmh 29.78 in1008.5 mb 0.00 in0.0 mm 0.00 in0.0 mm 0.00 in0.0 mm
04:40 PM 55.0°F12.8°C 43.1°F6.2°C 64% 4.0 mph N6.4 kmh N 6.0 mph9.7 kmh 29.78 in1008.5 mb 0.00 in0.0 mm 0.00 in0.0 mm 0.00 in0.0 mm
04:50 PM 56.3°F13.5°C 43.9°F6.6°C 63% 5.2 mph N8.4 kmh N 7.6 mph12.2 kmh 29.78 in1008.5 mb 0.00 in0.0 mm 0.00 in0.0 mm 0.00 in0.0 mm
05:00 PM 57.9°F14.4°C 44.1°F6.7°C 60% 5.5 mph N8.9 kmh N 8.3 mph13.4 kmh 29.78 in1008.5 mb 0.00 in0.0 mm 0.00 in0.0 mm 0.00 in0.0 mm
05:10 PM 56.7°F13.7°C 42.9°F6.1°C 60% 5.7 mph NE9.2 kmh NE 7.6 mph12.2 kmh 29.78 in1008.5 mb 0.00 in0.0 mm 0.00 in0.0 mm 0.00 in0.0 mm
05:20 PM 55.8°F13.2°C 42.5°F5.8°C 61% 5.0 mph NNE8.0 kmh NNE 7.6 mph12.2 kmh 29.79 in1008.8 mb 0.00 in0.0 mm 0.00 in0.0 mm 0.00 in0.0 mm
05:30 PM 55.2°F12.9°C 42.4°F5.8°C 62% 4.7 mph NNE7.6 kmh NNE 6.0 mph9.7 kmh 29.78 in1008.5 mb 0.00 in0.0 mm 0.00 in0.0 mm 0.00 in0.0 mm
05:40 PM 55.2°F12.9°C 42.0°F5.6°C 61% 4.9 mph N7.9 kmh N 6.9 mph11.1 kmh 29.79 in1008.8 mb 0.00 in0.0 mm 0.00 in0.0 mm 0.00 in0.0 mm
05:50 PM 54.9°F12.7°C 42.1°F5.6°C 62% 4.1 mph N6.6 kmh N 7.6 mph12.2 kmh 29.80 in1009.1 mb 0.00 in0.0 mm 0.00 in0.0 mm 0.00 in0.0 mm
06:00 PM 54.1°F12.3°C 43.0°F6.1°C 66% 5.2 mph NE8.4 kmh NE 6.9 mph11.1 kmh 29.79 in1008.8 mb 0.00 in0.0 mm 0.00 in0.0 mm 0.00 in0.0 mm
06:10 PM 53.6°F12.0°C 42.9°F6.1°C 67% 4.7 mph NE7.6 kmh NE 6.9 mph11.1 kmh 29.79 in1008.8 mb 0.00 in0.0 mm 0.00 in0.0 mm 0.00 in0.0 mm
06:20 PM 53.1°F11.7°C 42.8°F6.0°C 68% 5.0 mph NE8.0 kmh NE 6.9 mph11.1 kmh 29.80 in1009.1 mb 0.00 in0.0 mm 0.00 in0.0 mm 0.00 in0.0 mm
06:30 PM 52.5°F11.4°C 42.7°F5.9°C 69% 4.6 mph ENE7.4 kmh ENE 6.9 mph11.1 kmh 29.80 in1009.1 mb 0.00 in0.0 mm 0.00 in0.0 mm 0.00 in0.0 mm
06:40 PM 52.2°F11.2°C 42.7°F5.9°C 70% 3.9 mph ENE6.3 kmh ENE 4.5 mph7.2 kmh 29.81 in1009.5 mb 0.00 in0.0 mm 0.00 in0.0 mm 0.00 in0.0 mm
06:50 PM 51.8°F11.0°C 42.3°F5.7°C 70% 3.4 mph NE5.5 kmh NE 3.8 mph6.1 kmh 29.81 in1009.5 mb 0.00 in0.0 mm 0.00 in0.0 mm 0.00 in0.0 mm
07:00 PM 51.3°F10.7°C 41.8°F5.4°C 70% 2.5 mph ENE4.0 kmh ENE 3.1 mph5.0 kmh 29.82 in1009.8 mb 0.00 in0.0 mm 0.00 in0.0 mm 0.00 in0.0 mm
07:10 PM 50.7°F10.4°C 41.3°F5.2°C 70% 2.6 mph NE4.2 kmh NE 4.5 mph7.2 kmh 29.82 in1009.8 mb 0.00 in0.0 mm 0.00 in0.0 mm 0.00 in0.0 mm
07:20 PM 50.4°F10.2°C 41.3°F5.2°C 71% 2.7 mph ENE4.3 kmh ENE 3.1 mph5.0 kmh 29.83 in1010.2 mb 0.00 in0.0 mm 0.00 in0.0 mm 0.00 in0.0 mm
07:30 PM 50.0°F10.0°C 41.3°F5.2°C 72% 1.4 mph NE2.3 kmh NE 3.1 mph5.0 kmh 29.82 in1009.8 mb 0.00 in0.0 mm 0.00 in0.0 mm 0.00 in0.0 mm
07:40 PM 49.5°F9.7°C 40.8°F4.9°C 72% 1.8 mph NE2.9 kmh NE 2.2 mph3.5 kmh 29.83 in1010.2 mb 0.00 in0.0 mm 0.00 in0.0 mm 0.00 in0.0 mm
07:50 PM 49.1°F9.5°C 40.5°F4.7°C 72% 0.7 mph ENE1.1 kmh ENE 1.6 mph2.6 kmh 29.83 in1010.2 mb 0.00 in0.0 mm 0.00 in0.0 mm 0.00 in0.0 mm
08:00 PM 48.9°F9.4°C 40.7°F4.8°C 73% 1.8 mph NE2.9 kmh NE 2.2 mph3.5 kmh 29.84 in1010.5 mb 0.00 in0.0 mm 0.00 in0.0 mm 0.00 in0.0 mm
08:10 PM 48.9°F9.4°C 40.7°F4.8°C 73% 1.8 mph NE2.9 kmh NE 2.2 mph3.5 kmh 29.84 in1010.5 mb 0.00 in0.0 mm 0.00 in0.0 mm 0.00 in0.0 mm
08:20 PM 48.7°F9.3°C 40.8°F4.9°C 74% 0.6 mph NE1.0 kmh NE 1.6 mph2.6 kmh 29.84 in1010.5 mb 0.00 in0.0 mm 0.00 in0.0 mm 0.00 in0.0 mm
08:30 PM 48.7°F9.3°C 40.8°F4.9°C 74% 0.7 mph E1.1 kmh E 2.2 mph3.5 kmh 29.85 in1010.8 mb 0.00 in0.0 mm 0.00 in0.0 mm 0.00 in0.0 mm
08:40 PM 48.7°F9.3°C 40.8°F4.9°C 74% 0.5 mph ENE0.8 kmh ENE 1.6 mph2.6 kmh 29.84 in1010.5 mb 0.00 in0.0 mm 0.00 in0.0 mm 0.00 in0.0 mm
08:50 PM 48.7°F9.3°C 40.8°F4.9°C 74% 0.5 mph NE0.8 kmh NE 1.6 mph2.6 kmh 29.84 in1010.5 mb 0.00 in0.0 mm 0.00 in0.0 mm 0.00 in0.0 mm
09:00 PM 48.9°F9.4°C 41.0°F5.0°C 74% Calm Calm -- 29.84 in1010.5 mb 0.00 in0.0 mm 0.00 in0.0 mm 0.00 in0.0 mm
09:10 PM 48.9°F9.4°C 41.4°F5.2°C 75% Calm Calm -- 29.84 in1010.5 mb 0.00 in0.0 mm 0.00 in0.0 mm 0.00 in0.0 mm
09:20 PM 49.1°F9.5°C 41.5°F5.3°C 75% 0.6 mph NE1.0 kmh NE 1.6 mph2.6 kmh 29.85 in1010.8 mb 0.00 in0.0 mm 0.00 in0.0 mm 0.00 in0.0 mm
09:30 PM 49.1°F9.5°C 41.5°F5.3°C 75% 2.3 mph N3.7 kmh N 6.0 mph9.7 kmh 29.84 in1010.5 mb 0.00 in0.0 mm 0.00 in0.0 mm 0.00 in0.0 mm
09:40 PM 49.3°F9.6°C 41.7°F5.4°C 75% 2.5 mph NNE4.0 kmh NNE 4.5 mph7.2 kmh 29.84 in1010.5 mb 0.00 in0.0 mm 0.00 in0.0 mm 0.00 in0.0 mm
09:50 PM 49.3°F9.6°C 41.7°F5.4°C 75% 3.1 mph ENE5.0 kmh ENE 4.5 mph7.2 kmh 29.85 in1010.8 mb 0.00 in0.0 mm 0.00 in0.0 mm 0.00 in0.0 mm
10:00 PM 49.3°F9.6°C 41.7°F5.4°C 75% 2.8 mph ENE4.5 kmh ENE 3.8 mph6.1 kmh 29.84 in1010.5 mb 0.00 in0.0 mm 0.00 in0.0 mm 0.00 in0.0 mm
10:10 PM 49.1°F9.5°C 41.5°F5.3°C 75% 2.6 mph NE4.2 kmh NE 3.8 mph6.1 kmh 29.85 in1010.8 mb 0.00 in0.0 mm 0.00 in0.0 mm 0.00 in0.0 mm
10:20 PM 49.1°F9.5°C 41.5°F5.3°C 75% 2.6 mph NNE4.2 kmh NNE 3.8 mph6.1 kmh 29.85 in1010.8 mb 0.00 in0.0 mm 0.00 in0.0 mm 0.00 in0.0 mm
10:30 PM 49.3°F9.6°C 41.7°F5.4°C 75% 3.4 mph NNW5.5 kmh NNW 5.4 mph8.7 kmh 29.84 in1010.5 mb 0.00 in0.0 mm 0.00 in0.0 mm 0.00 in0.0 mm
10:40 PM 49.3°F9.6°C 41.7°F5.4°C 75% 3.7 mph N6.0 kmh N 5.4 mph8.7 kmh 29.84 in1010.5 mb 0.00 in0.0 mm 0.00 in0.0 mm 0.00 in0.0 mm
10:50 PM 49.1°F9.5°C 41.5°F5.3°C 75% 2.8 mph N4.5 kmh N 4.5 mph7.2 kmh 29.85 in1010.8 mb 0.00 in0.0 mm 0.00 in0.0 mm 0.00 in0.0 mm
11:00 PM 49.1°F9.5°C 41.5°F5.3°C 75% 1.8 mph NE2.9 kmh NE 3.1 mph5.0 kmh 29.84 in1010.5 mb 0.00 in0.0 mm 0.00 in0.0 mm 0.00 in0.0 mm
11:10 PM 48.9°F9.4°C 41.4°F5.2°C 75% 1.9 mph NE3.1 kmh NE 3.1 mph5.0 kmh 29.84 in1010.5 mb 0.00 in0.0 mm 0.00 in0.0 mm 0.00 in0.0 mm
11:20 PM 48.9°F9.4°C 41.4°F5.2°C 75% 2.0 mph NE3.2 kmh NE 3.1 mph5.0 kmh 29.85 in1010.8 mb 0.00 in0.0 mm 0.00 in0.0 mm 0.00 in0.0 mm
11:30 PM 48.9°F9.4°C 41.4°F5.2°C 75% 2.8 mph NE4.5 kmh NE 3.8 mph6.1 kmh 29.84 in1010.5 mb 0.00 in0.0 mm 0.00 in0.0 mm 0.00 in0.0 mm
11:40 PM 48.9°F9.4°C 41.4°F5.2°C 75% 3.1 mph NE5.0 kmh NE 4.5 mph7.2 kmh 29.84 in1010.5 mb 0.00 in0.0 mm 0.00 in0.0 mm 0.00 in0.0 mm
11:50 PM 48.9°F9.4°C 41.4°F5.2°C 75% 4.2 mph N6.8 kmh N 7.6 mph12.2 kmh 29.84 in1010.5 mb 0.00 in0.0 mm 0.00 in0.0 mm 0.00 in0.0 mm